Pagina principală
METAR-TAF:

METAR-TAF

Aeroporturi :

Atlantic, Iowa, Statele Unite ale Americii

Latitudine: 41-24N, longitudine: 095-03W, elevație: 360 m

Observații meteo curente

Raportul a fost făcut în urmă cu 34 de minute, la 00:55 UTC
Vânt 18 kt de la Vest/Nord-vest cu rafale de până la 25 kt
Temperatură 16°C
Umiditate 88%
Presiune 1003 hPa
Vizibilitate: 16.1 km
Nori puțini la o înălțime de 1700 picior
Nori împrăștiați la o înălțime de 2900 picior
Total acoperit la o înălțime de 4300 picior

METAR: KAIO 220055Z AUTO 29018G25KT 10SM FEW017 SCT029 OVC043 16/14 A2963 RMK AO2

Ora: 20:29 (01:29 UTC)


TAF: lipsă

Observații și prognoze meteo pentru peste 4.000 de aeroporturi (rapoarte METAR și TAF).

Stațiile disponibile sunt reprezentate pe hartă prin puncte galbene și roșii.

Țineți indicatorul mouse-ului pe punctul dorit pentru a vedea denumirea stației.

Apoi, faceți clic pentru a vedea observațiile și prognozele meteorologice.

Pentru a schimba harta: Pentru mărire, faceți clic pe butoanele verzi cu cruce neagră; pentru micșorare, pe butonul verde cu o liniuță; pentru hărți învecinate, pe săgețile verzi.


METAR-TAF: